»·PEaware :: SKY424 KOAR-KPAO

SKY424 :: KOAR-KPAO

FLIGHT INFORMATION

Flight Status: Arrived
Operator:
Sky High Charters
More flights by this operator :: More flights under this callsign
Pilot: Ben H. (9170)
Aircraft: BEECH AIRCRAFT DEBONAIR BONANZA
(BE33)
More flights by this aircraft type
Origin: KOAR Marina
United States
Destination: KPAO Palo Alto Of Santa Clara Co
United States
More flights between these airports :: More routes between these airports
Route: SNS V25 SAPID
File this flight plan on PilotEdge
Remarks: SKYHIGH SCENARIO 4
Altitude:
(Current/Filed)
6,000ft
Speed:
(Current/Filed)
150kts
Departed: 22-Dec-18 09:38 AM
Arrived: 22-Dec-18 10:11 AM
Distance/Time
Traveled:
50nm/0:33
Distance/Time
To Go:
Arrived

Flight Plot

Page will automatically refresh every two minutes.

Flight plan parsing failed; only flown route is shown


Map Options




Map Legend


Flown Route
Filed Route
Departure Airport
Arrival Airport
Navaid (VOR, NDB)
Fix

Horizontal Profiles

Position Reports

Time Latitude Longitude Heading Altitude Ground
Speed
22-Dec-18 09:29 36.674139 -121.762321 304 135ft 0kts
22-Dec-18 09:30 36.674139 -121.762321 304 135ft 0kts
22-Dec-18 09:31 36.674139 -121.762321 304 135ft 0kts
22-Dec-18 09:32 36.674652 -121.762110 35 135ft 0kts
22-Dec-18 09:33 36.674652 -121.762110 35 135ft 0kts
22-Dec-18 09:34 36.674945 -121.761842 35 135ft 9kts
22-Dec-18 09:35 36.678640 -121.758901 32 135ft 3kts
22-Dec-18 09:36 36.679188 -121.758427 32 135ft 0kts
22-Dec-18 09:37 36.680886 -121.760354 303 135ft 75kts
22-Dec-18 09:38 36.692686 -121.786211 299 1446ft 81kts
22-Dec-18 09:39 36.706929 -121.784591 93 2476ft 80kts
22-Dec-18 09:40 36.702139 -121.757746 104 3525ft 84kts
22-Dec-18 09:41 36.694381 -121.728600 103 4460ft 95kts
22-Dec-18 09:42 36.686128 -121.696098 110 5385ft 102kts
22-Dec-18 09:43 36.677750 -121.660379 110 6014ft 128kts
22-Dec-18 09:44 36.666086 -121.611745 109 6005ft 158kts
22-Dec-18 09:45 36.689191 -121.587047 303 5998ft 168kts
22-Dec-18 09:46 36.696170 -121.642621 290 6001ft 168kts
22-Dec-18 09:47 36.722692 -121.690596 306 6000ft 171kts
22-Dec-18 09:48 36.751351 -121.733257 312 6000ft 168kts
22-Dec-18 09:49 36.780786 -121.776961 312 6002ft 164kts
22-Dec-18 09:50 36.809485 -121.819658 311 6004ft 162kts
22-Dec-18 09:51 36.837397 -121.861240 310 6006ft 160kts
22-Dec-18 09:52 36.865802 -121.903605 310 6009ft 162kts
22-Dec-18 09:53 36.894471 -121.946423 309 6008ft 164kts
22-Dec-18 09:54 36.923659 -121.990079 309 5961ft 166kts
22-Dec-18 09:55 36.952975 -122.033949 310 5957ft 164kts
22-Dec-18 09:56 36.972879 -122.082968 305 5951ft 164kts
22-Dec-18 09:57 37.014136 -122.096016 348 5965ft 165kts
22-Dec-18 09:58 37.057827 -122.112824 337 5970ft 165kts
22-Dec-18 09:59 37.100345 -122.134111 335 5978ft 166kts
22-Dec-18 10:00 37.141570 -122.154890 336 5985ft 167kts
22-Dec-18 10:01 37.185113 -122.169555 13 5899ft 165kts
22-Dec-18 10:02 37.212787 -122.126795 61 5458ft 167kts
22-Dec-18 10:03 37.233386 -122.074740 62 4986ft 167kts
22-Dec-18 10:04 37.260449 -122.030688 11 4416ft 166kts
22-Dec-18 10:05 37.304416 -122.042320 341 3863ft 163kts
22-Dec-18 10:06 37.348170 -122.058600 343 3324ft 165kts
22-Dec-18 10:07 37.390816 -122.072805 346 3084ft 146kts
22-Dec-18 10:08 37.423617 -122.085668 339 2128ft 106kts
22-Dec-18 10:09 37.446137 -122.100287 324 701ft 87kts
22-Dec-18 10:10 37.462124 -122.116036 322 9ft 30kts
22-Dec-18 10:11 37.463406 -122.117952 175 9ft 0kts
22-Dec-18 10:12 37.460971 -122.115540 142 9ft 18kts
22-Dec-18 10:13 37.459689 -122.114715 98 9ft 0kts
22-Dec-18 10:14 37.459689 -122.114715 98 9ft 0kts
22-Dec-18 10:15 37.459689 -122.114715 98 9ft 0kts
22-Dec-18 10:16 37.459689 -122.114715 98 9ft 0kts
22-Dec-18 10:17 37.459689 -122.114715 98 9ft 0kts
22-Dec-18 10:18 37.459689 -122.114715 98 9ft 0kts
22-Dec-18 10:19 37.459689 -122.114715 98 9ft 0kts
22-Dec-18 10:20 37.459689 -122.114715 98 9ft 0kts
22-Dec-18 10:21 37.459689 -122.114715 98 9ft 0kts
22-Dec-18 10:22 37.459689 -122.114715 98 9ft 0kts
22-Dec-18 10:23 37.459689 -122.114715 98 9ft 0kts
22-Dec-18 10:24 37.459689 -122.114715 98 9ft 0kts

Navigation Log

Ident Type
Flight plan parsing failed, navigation log unavailable